Time;durP1;ratioP1;P1;durP2;ratioP2;P2;SDS_P1;SDS_P2;PMS_P1;PMS_P2;Temp;Humidity;BMP_temperature;BMP_pressure;BME280_temperature;BME280_humidity;BME280_pressure;Samples;Min_cycle;Max_cycle;Signal;HPM_P1;HPM_P2
2021/12/30 00:01:53;;;;;;;;;;;;;;;4.98;70.91;99711.69;4450729;32;34130;-56
2021/12/30 00:04:22;;;;;;;;;;;;;;;4.90;71.38;99705.00;4450566;32;35091;-56
2021/12/30 00:06:50;;;;;;;;;;;;;;;5.15;70.82;99711.00;4450645;32;34215;-56
2021/12/30 00:09:19;;;;;;;;;;;;;;;5.10;71.03;99716.44;4450596;32;35097;-56
2021/12/30 00:11:47;;;;;;;;;;;;;;;5.05;71.30;99713.13;4450978;32;33187;-56
2021/12/30 00:14:34;;;;;;;;;;;;;;;5.20;70.90;99720.38;4450673;32;33781;-56
2021/12/30 00:17:02;;;;;;;;;;;;;;;5.15;70.33;99716.25;4450590;32;35461;-56
2021/12/30 00:19:29;;;;;;;;;;;;;;;5.35;69.66;99729.38;4436530;32;34715;-56
2021/12/30 00:21:57;;;;;;;;;;;;;;;5.30;69.59;99731.31;4450585;32;33171;-56
2021/12/30 00:24:24;;;;;;;;;;;;;;;4.92;70.21;99729.34;4450446;32;34467;-56
2021/12/30 00:26:52;;;;;;;;;;;;;;;4.91;70.48;99729.41;4450733;32;34609;-56
2021/12/30 00:29:20;;;;;;;;;;;;;;;4.96;70.59;99722.19;4450638;32;34866;-56
2021/12/30 00:31:49;;;;;;;;;;;;;;;5.02;70.44;99731.56;4450646;32;33841;-56
2021/12/30 00:34:16;;;;;;;;;;;;;;;5.04;70.73;99740.22;4450496;32;34334;-56
2021/12/30 00:36:43;;;;;;;;;;;;;;;5.00;70.72;99755.22;4450414;32;34353;-56
2021/12/30 00:39:10;;;;;;;;;;;;;;;5.10;70.53;99756.53;4450376;32;34673;-56
2021/12/30 00:41:38;;;;;;;;;;;;;;;5.21;70.20;99752.62;4450362;32;34057;-56
2021/12/30 00:44:05;;;;;;;;;;;;;;;5.13;70.67;99747.72;4450355;32;34081;-56
2021/12/30 00:46:32;;;;;;;;;;;;;;;5.30;70.27;99754.88;4450470;32;34624;-56
2021/12/30 00:48:59;;;;;;;;;;;;;;;5.21;70.37;99757.87;4449902;32;33736;-56
2021/12/30 00:51:26;;;;;;;;;;;;;;;5.24;70.30;99758.59;4450689;32;33501;-56
2021/12/30 00:53:54;;;;;;;;;;;;;;;5.19;70.60;99765.78;4450513;32;35000;-56
2021/12/30 00:56:21;;;;;;;;;;;;;;;5.36;70.20;99766.88;4450114;32;34957;-56
2021/12/30 00:58:48;;;;;;;;;;;;;;;5.39;70.23;99778.09;4450239;32;34326;-56
2021/12/30 01:01:16;;;;;;;;;;;;;;;5.30;70.29;99781.06;4450556;32;33716;-56
2021/12/30 01:03:43;;;;;;;;;;;;;;;5.38;70.11;99786.84;4450366;32;33708;-56
2021/12/30 01:06:11;;;;;;;;;;;;;;;5.36;70.22;99788.69;4450362;32;34780;-56
2021/12/30 01:08:38;;;;;;;;;;;;;;;5.40;70.15;99797.28;4450159;32;34456;-56
2021/12/30 01:11:08;;;;;;;;;;;;;;;5.26;70.53;99789.97;4450282;32;33383;-56
2021/12/30 01:13:40;;;;;;;;;;;;;;;5.38;70.08;99786.00;4450338;32;34312;-56
2021/12/30 01:16:16;;;;;;;;;;;;;;;5.32;70.30;99781.88;4450156;32;34357;-56
2021/12/30 01:18:56;;;;;;;;;;;;;;;5.45;69.97;99788.31;4450169;32;34424;-56
2021/12/30 01:21:24;;;;;;;;;;;;;;;5.45;69.83;99782.22;4450380;32;34152;-56
2021/12/30 01:23:52;;;;;;;;;;;;;;;5.07;70.61;99789.84;4450165;32;33972;-56
2021/12/30 01:26:19;;;;;;;;;;;;;;;5.32;69.90;99795.78;4449841;32;35561;-56
2021/12/30 01:28:48;;;;;;;;;;;;;;;5.39;69.49;99804.28;4450005;32;34499;-56
2021/12/30 01:31:16;;;;;;;;;;;;;;;5.29;70.00;99808.16;4450116;32;34115;-56
2021/12/30 01:33:44;;;;;;;;;;;;;;;5.28;70.25;99796.84;4450032;32;33816;-56
2021/12/30 01:36:12;;;;;;;;;;;;;;;5.33;70.09;99794.91;4449964;32;34184;-56
2021/12/30 01:38:39;;;;;;;;;;;;;;;4.92;71.20;99804.34;4449939;32;35330;-56
2021/12/30 01:41:06;;;;;;;;;;;;;;;5.25;70.14;99806.56;4450032;32;33216;-56
2021/12/30 01:43:35;;;;;;;;;;;;;;;5.09;70.90;99799.31;4449830;32;35315;-56
2021/12/30 01:46:06;;;;;;;;;;;;;;;5.18;70.67;99803.34;4449666;32;34322;-56
2021/12/30 01:48:34;;;;;;;;;;;;;;;5.28;70.41;99809.94;4449982;32;34496;-56
2021/12/30 01:51:01;;;;;;;;;;;;;;;5.24;70.43;99815.34;4449868;32;33786;-56
2021/12/30 01:53:28;;;;;;;;;;;;;;;5.30;70.26;99812.50;4450026;32;34728;-56
2021/12/30 01:55:56;;;;;;;;;;;;;;;5.30;70.35;99804.63;4449796;32;35585;-56
2021/12/30 01:58:23;;;;;;;;;;;;;;;5.22;70.34;99815.41;4449972;32;34273;-56
2021/12/30 02:00:50;;;;;;;;;;;;;;;5.26;70.02;99806.53;4450680;32;33912;-56
2021/12/30 02:03:18;;;;;;;;;;;;;;;5.29;70.07;99806.41;4451718;32;34896;-56
2021/12/30 02:05:46;;;;;;;;;;;;;;;5.17;70.54;99801.63;4451334;32;35610;-56
2021/12/30 02:08:15;;;;;;;;;;;;;;;5.25;70.24;99799.59;4451485;32;34981;-56
2021/12/30 02:10:42;;;;;;;;;;;;;;;5.20;70.19;99800.69;4451593;32;33822;-56
2021/12/30 02:13:10;;;;;;;;;;;;;;;5.10;70.84;99808.06;4451370;32;34955;-56
2021/12/30 02:15:38;;;;;;;;;;;;;;;5.13;70.97;99800.06;4451584;32;34807;-56
2021/12/30 02:18:05;;;;;;;;;;;;;;;5.31;70.25;99809.81;4451394;32;34648;-56
2021/12/30 02:20:37;;;;;;;;;;;;;;;5.28;70.54;99804.69;4451422;32;33571;-56
2021/12/30 02:23:04;;;;;;;;;;;;;;;5.24;70.73;99805.72;4451327;32;34898;-56
2021/12/30 02:25:32;;;;;;;;;;;;;;;5.36;70.53;99814.88;4451355;32;34875;-56
2021/12/30 02:27:59;;;;;;;;;;;;;;;5.38;70.20;99806.94;4451411;32;35142;-56
2021/12/30 02:30:26;;;;;;;;;;;;;;;5.46;70.04;99810.09;4451404;32;33598;-56
2021/12/30 02:32:53;;;;;;;;;;;;;;;5.37;70.51;99815.72;4451349;32;33979;-56
2021/12/30 02:35:20;;;;;;;;;;;;;;;5.27;70.94;99818.72;4451154;32;35076;-56
2021/12/30 02:37:49;;;;;;;;;;;;;;;5.25;70.88;99817.94;4451209;32;34253;-56
2021/12/30 02:40:22;;;;;;;;;;;;;;;5.19;70.62;99802.44;4451203;32;34194;-56
2021/12/30 02:42:50;;;;;;;;;;;;;;;5.09;71.15;99801.09;4451299;32;34079;-56
2021/12/30 02:45:17;;;;;;;;;;;;;;;5.31;70.66;99794.13;4451158;32;34301;-56
2021/12/30 02:47:44;;;;;;;;;;;;;;;5.21;70.93;99789.28;4451201;32;35172;-56
2021/12/30 02:50:12;;;;;;;;;;;;;;;5.36;70.11;99788.69;4451192;32;33281;-56
2021/12/30 02:52:39;;;;;;;;;;;;;;;5.42;69.87;99788.41;4451096;32;34431;-56
2021/12/30 02:55:06;;;;;;;;;;;;;;;5.36;70.09;99803.53;4450875;32;34339;-56
2021/12/30 02:57:34;;;;;;;;;;;;;;;5.33;70.29;99805.38;4451384;32;34557;-56
2021/12/30 03:00:01;;;;;;;;;;;;;;;5.24;70.72;99800.50;4451131;32;34150;-56
2021/12/30 03:02:28;;;;;;;;;;;;;;;5.35;70.50;99801.81;4451210;32;33542;-56
2021/12/30 03:04:56;;;;;;;;;;;;;;;5.39;70.46;99803.41;4451242;32;35227;-56
2021/12/30 03:07:23;;;;;;;;;;;;;;;5.41;70.53;99801.56;4451041;32;33947;-56
2021/12/30 03:09:50;;;;;;;;;;;;;;;5.26;70.89;99803.91;4450988;32;34485;-56
2021/12/30 03:12:17;;;;;;;;;;;;;;;5.37;70.74;99810.47;4450824;32;34511;-56
2021/12/30 03:14:48;;;;;;;;;;;;;;;5.30;70.83;99810.72;4451016;32;33868;-56
2021/12/30 03:17:15;;;;;;;;;;;;;;;5.36;70.86;99819.25;4450958;32;35086;-56
2021/12/30 03:19:42;;;;;;;;;;;;;;;5.40;70.82;99815.59;4451323;32;33033;-56
2021/12/30 03:22:09;;;;;;;;;;;;;;;5.45;70.46;99817.13;4451273;32;33700;-56
2021/12/30 03:24:36;;;;;;;;;;;;;;;5.43;70.49;99818.94;4450981;32;34777;-56
2021/12/30 03:27:05;;;;;;;;;;;;;;;5.46;70.38;99812.72;4451149;32;33812;-56
2021/12/30 03:29:33;;;;;;;;;;;;;;;5.49;70.40;99817.84;4450998;32;34179;-56
2021/12/30 03:32:00;;;;;;;;;;;;;;;5.46;70.61;99813.56;4450848;32;33609;-56
2021/12/30 03:34:28;;;;;;;;;;;;;;;5.46;70.52;99821.44;4451091;32;34847;-56
2021/12/30 03:36:55;;;;;;;;;;;;;;;5.42;70.62;99834.72;4450821;32;35045;-56
2021/12/30 03:39:22;;;;;;;;;;;;;;;5.41;70.38;99827.75;4451153;32;33286;-56
2021/12/30 03:41:50;;;;;;;;;;;;;;;5.39;70.44;99820.00;4450875;32;34087;-56
2021/12/30 03:44:17;;;;;;;;;;;;;;;5.36;70.29;99824.50;4451079;32;34500;-56
2021/12/30 03:46:44;;;;;;;;;;;;;;;5.26;70.73;99832.69;4450656;32;33855;-56
2021/12/30 03:49:12;;;;;;;;;;;;;;;5.23;70.66;99832.81;4450786;32;33543;-56
2021/12/30 03:51:40;;;;;;;;;;;;;;;5.24;70.71;99831.91;4450701;32;35047;-56
2021/12/30 03:54:07;;;;;;;;;;;;;;;5.20;70.82;99845.19;4450867;32;34865;-56
2021/12/30 03:56:35;;;;;;;;;;;;;;;5.39;70.31;99845.31;4450746;32;34873;-56
2021/12/30 03:59:03;;;;;;;;;;;;;;;5.45;70.28;99845.94;4450844;32;33960;-56
2021/12/30 04:01:31;;;;;;;;;;;;;;;5.46;70.20;99852.00;4450609;32;35093;-56
2021/12/30 04:03:58;;;;;;;;;;;;;;;5.50;70.02;99859.69;4450668;32;34273;-56
2021/12/30 04:06:27;;;;;;;;;;;;;;;5.41;70.33;99853.94;4450444;32;34739;-56
2021/12/30 04:08:55;;;;;;;;;;;;;;;5.56;69.67;99850.72;4450779;32;33193;-56
2021/12/30 04:11:24;;;;;;;;;;;;;;;5.55;69.70;99842.94;4450821;32;34115;-56
2021/12/30 04:13:51;;;;;;;;;;;;;;;5.22;70.42;99843.38;4436608;32;34575;-56
2021/12/30 04:16:19;;;;;;;;;;;;;;;5.16;70.96;99860.16;4450533;32;33898;-56
2021/12/30 04:18:48;;;;;;;;;;;;;;;5.28;70.66;99870.16;4450431;32;33235;-56
2021/12/30 04:21:16;;;;;;;;;;;;;;;5.12;71.00;99850.72;4450533;32;33623;-56
2021/12/30 04:23:44;;;;;;;;;;;;;;;5.09;71.27;99863.91;4449736;32;35098;-56
2021/12/30 04:26:12;;;;;;;;;;;;;;;5.28;70.97;99871.94;4450374;32;34331;-56
2021/12/30 04:28:40;;;;;;;;;;;;;;;5.13;71.21;99883.81;4450701;32;33692;-56
2021/12/30 04:31:09;;;;;;;;;;;;;;;5.13;71.36;99887.28;4450836;32;34130;-56
2021/12/30 04:33:36;;;;;;;;;;;;;;;5.09;71.83;99888.31;4450503;32;34776;-56
2021/12/30 04:36:03;;;;;;;;;;;;;;;5.20;71.27;99881.84;4450417;32;34432;-56
2021/12/30 04:38:31;;;;;;;;;;;;;;;5.21;71.28;99888.78;4450372;32;35016;-56
2021/12/30 04:40:59;;;;;;;;;;;;;;;5.09;71.56;99890.94;4450372;32;34336;-56
2021/12/30 04:43:26;;;;;;;;;;;;;;;5.13;71.81;99899.53;4450489;32;35030;-56
2021/12/30 04:45:53;;;;;;;;;;;;;;;5.29;71.43;99907.66;4436442;32;34846;-56
2021/12/30 04:48:21;;;;;;;;;;;;;;;5.31;71.18;99911.94;4450528;32;33060;-56
2021/12/30 04:50:48;;;;;;;;;;;;;;;5.30;71.40;99917.22;4450357;32;33490;-56
2021/12/30 04:53:16;;;;;;;;;;;;;;;5.37;71.36;99915.22;4450292;32;34284;-56
2021/12/30 04:55:44;;;;;;;;;;;;;;;5.35;71.53;99928.41;4450108;32;33962;-56
2021/12/30 04:58:11;;;;;;;;;;;;;;;5.38;71.44;99932.66;4450302;32;34214;-56
2021/12/30 05:00:38;;;;;;;;;;;;;;;5.39;71.60;99940.47;4450244;32;33876;-56
2021/12/30 05:03:14;;;;;;;;;;;;;;;5.46;71.28;99947.16;4450583;32;34374;-56
2021/12/30 05:05:42;;;;;;;;;;;;;;;5.44;71.25;99954.22;4450396;32;34021;-56
2021/12/30 05:08:09;;;;;;;;;;;;;;;5.31;71.88;99959.06;4450315;32;32679;-56
2021/12/30 05:10:37;;;;;;;;;;;;;;;5.40;71.53;99957.00;4450209;32;33902;-56
2021/12/30 05:13:05;;;;;;;;;;;;;;;5.47;71.44;99974.22;4450390;32;34508;-56
2021/12/30 05:15:33;;;;;;;;;;;;;;;5.64;70.62;99992.75;4449990;32;34350;-56
2021/12/30 05:18:00;;;;;;;;;;;;;;;5.67;70.65;100007.50;4450266;32;33683;-56
2021/12/30 05:20:28;;;;;;;;;;;;;;;5.52;71.09;100003.69;4450328;32;35084;-56
2021/12/30 05:22:55;;;;;;;;;;;;;;;5.47;71.41;100006.50;4450086;32;35553;-56
2021/12/30 05:25:22;;;;;;;;;;;;;;;5.45;71.49;100007.47;4450134;32;34876;-56
2021/12/30 05:27:50;;;;;;;;;;;;;;;5.41;71.46;100014.59;4449972;32;32808;-56
2021/12/30 05:30:19;;;;;;;;;;;;;;;5.59;71.06;100014.81;4449993;32;34380;-56
2021/12/30 05:32:46;;;;;;;;;;;;;;;5.55;71.24;100021.06;4450265;32;34388;-56
2021/12/30 05:35:13;;;;;;;;;;;;;;;5.62;71.03;100015.56;4449868;32;35278;-56
2021/12/30 05:37:41;;;;;;;;;;;;;;;5.56;71.16;100018.38;4450077;32;33191;-56
2021/12/30 05:40:09;;;;;;;;;;;;;;;5.48;71.28;100018.66;4449996;32;34629;-56
2021/12/30 05:42:36;;;;;;;;;;;;;;;5.65;70.81;100020.66;4449887;32;34549;-56
2021/12/30 05:45:04;;;;;;;;;;;;;;;5.53;70.97;100026.38;4449801;32;34996;-56
2021/12/30 05:47:33;;;;;;;;;;;;;;;5.55;71.05;100029.78;4449896;32;33644;-56
2021/12/30 05:50:02;;;;;;;;;;;;;;;5.77;70.35;100031.59;4449821;32;34221;-56
2021/12/30 05:52:31;;;;;;;;;;;;;;;5.76;70.20;100027.25;4449945;32;36246;-56
2021/12/30 05:54:58;;;;;;;;;;;;;;;5.76;70.07;100030.75;4449443;32;34913;-56
2021/12/30 05:57:26;;;;;;;;;;;;;;;5.69;70.13;100024.88;4449832;32;33225;-56
2021/12/30 05:59:53;;;;;;;;;;;;;;;5.70;70.01;100016.09;4449685;32;34180;-56
2021/12/30 06:02:20;;;;;;;;;;;;;;;5.69;70.28;100026.63;4449576;32;35280;-56
2021/12/30 06:04:48;;;;;;;;;;;;;;;5.59;70.85;100020.03;4449564;32;34613;-56
2021/12/30 06:07:15;;;;;;;;;;;;;;;5.57;70.81;100022.72;4449479;32;33774;-56
2021/12/30 06:09:42;;;;;;;;;;;;;;;5.61;70.65;100034.78;4449434;32;34179;-56
2021/12/30 06:12:09;;;;;;;;;;;;;;;5.42;71.43;100055.56;4449493;32;34353;-56
2021/12/30 06:14:37;;;;;;;;;;;;;;;5.68;70.68;100058.97;4449483;32;35138;-56
2021/12/30 06:17:04;;;;;;;;;;;;;;;5.66;70.63;100064.28;4449596;32;33924;-56
2021/12/30 06:19:31;;;;;;;;;;;;;;;5.81;70.20;100060.22;4449398;32;34271;-56
2021/12/30 06:21:58;;;;;;;;;;;;;;;5.71;70.56;100064.97;4449327;32;34665;-56
2021/12/30 06:24:25;;;;;;;;;;;;;;;5.72;70.67;100065.84;4449197;32;35216;-56
2021/12/30 06:26:53;;;;;;;;;;;;;;;5.95;69.66;100064.09;4449128;32;33592;-56
2021/12/30 06:29:20;;;;;;;;;;;;;;;5.62;70.77;100067.94;4449280;32;33674;-56
2021/12/30 06:31:48;;;;;;;;;;;;;;;5.72;70.39;100082.41;4449219;32;35116;-56
2021/12/30 06:34:15;;;;;;;;;;;;;;;5.70;70.60;100080.75;4449156;32;34854;-56
2021/12/30 06:36:42;;;;;;;;;;;;;;;5.68;70.63;100087.78;4449065;32;33298;-56
2021/12/30 06:39:09;;;;;;;;;;;;;;;5.71;70.44;100093.78;4449280;32;33756;-56
2021/12/30 06:41:37;;;;;;;;;;;;;;;5.75;70.26;100094.53;4449332;32;35134;-56
2021/12/30 06:44:04;;;;;;;;;;;;;;;5.80;69.97;100099.62;4448976;32;34322;-56
2021/12/30 06:46:31;;;;;;;;;;;;;;;5.60;70.39;100110.81;4449890;32;33518;-56
2021/12/30 06:48:59;;;;;;;;;;;;;;;5.48;70.89;100120.81;4451160;32;34675;-56
2021/12/30 06:51:27;;;;;;;;;;;;;;;5.62;70.27;100125.59;4451481;32;34362;-56
2021/12/30 06:53:55;;;;;;;;;;;;;;;5.59;70.29;100132.69;4451056;32;35072;-56
2021/12/30 06:56:23;;;;;;;;;;;;;;;5.48;70.79;100138.28;4450930;32;33172;-56
2021/12/30 06:58:50;;;;;;;;;;;;;;;5.61;70.54;100162.31;4451349;32;34296;-56
2021/12/30 07:01:17;;;;;;;;;;;;;;;5.59;70.60;100174.62;4437119;32;35292;-56
2021/12/30 07:03:45;;;;;;;;;;;;;;;5.48;70.93;100170.56;4437231;32;34179;-56
2021/12/30 07:06:12;;;;;;;;;;;;;;;5.45;71.02;100178.56;4451350;32;33406;-56
2021/12/30 07:08:40;;;;;;;;;;;;;;;5.58;70.79;100175.50;4451056;32;33494;-56
2021/12/30 07:11:07;;;;;;;;;;;;;;;5.55;70.69;100167.78;4451153;32;35227;-56
2021/12/30 07:13:34;;;;;;;;;;;;;;;5.24;71.21;100158.34;4451116;32;33851;-56
2021/12/30 07:16:02;;;;;;;;;;;;;;;5.52;70.54;100169.59;4450976;32;32892;-56
2021/12/30 07:18:29;;;;;;;;;;;;;;;5.32;71.14;100169.41;4450899;32;34228;-56
2021/12/30 07:20:56;;;;;;;;;;;;;;;5.41;70.95;100163.88;4451169;32;34537;-56
2021/12/30 07:23:24;;;;;;;;;;;;;;;5.56;70.38;100166.84;4451074;32;34738;-56
2021/12/30 07:25:52;;;;;;;;;;;;;;;5.36;71.17;100170.16;4451169;32;33795;-56
2021/12/30 07:28:19;;;;;;;;;;;;;;;5.33;71.23;100173.72;4450902;32;34174;-56
2021/12/30 07:30:46;;;;;;;;;;;;;;;5.29;71.26;100167.75;4450854;32;35447;-56
2021/12/30 07:33:14;;;;;;;;;;;;;;;5.46;70.74;100172.41;4450882;32;34288;-56
2021/12/30 07:35:42;;;;;;;;;;;;;;;5.43;70.78;100192.59;4450828;32;32891;-56
2021/12/30 07:38:09;;;;;;;;;;;;;;;5.55;70.54;100200.06;4437089;32;34617;-56
2021/12/30 07:40:36;;;;;;;;;;;;;;;5.46;70.98;100195.97;4450847;32;36009;-56
2021/12/30 07:43:03;;;;;;;;;;;;;;;5.53;70.74;100200.09;4450871;32;34092;-56
2021/12/30 07:45:30;;;;;;;;;;;;;;;5.59;70.51;100206.91;4450874;32;33703;-56
2021/12/30 07:47:58;;;;;;;;;;;;;;;5.59;70.52;100203.44;4450628;32;33668;-56
2021/12/30 07:50:25;;;;;;;;;;;;;;;5.48;70.92;100199.38;4450694;32;35826;-56
2021/12/30 07:52:53;;;;;;;;;;;;;;;5.42;71.17;100201.38;4450753;32;34230;-56
2021/12/30 07:55:20;;;;;;;;;;;;;;;5.43;71.10;100210.94;4450576;32;33699;-56
2021/12/30 07:57:48;;;;;;;;;;;;;;;5.40;71.09;100208.44;4450062;32;34869;-56
2021/12/30 08:00:16;;;;;;;;;;;;;;;5.49;70.92;100214.22;4451044;32;35326;-56
2021/12/30 08:02:44;;;;;;;;;;;;;;;5.55;70.70;100207.91;4450792;32;33842;-56
2021/12/30 08:05:12;;;;;;;;;;;;;;;5.68;70.14;100208.31;4450597;32;34935;-56
2021/12/30 08:07:40;;;;;;;;;;;;;;;5.56;70.60;100208.75;4450820;32;34135;-56
2021/12/30 08:10:12;;;;;;;;;;;;;;;5.68;70.13;100206.59;4425756;32;785903;-56
2021/12/30 08:12:39;;;;;;;;;;;;;;;5.41;71.14;100210.13;4450773;32;35000;-56
2021/12/30 08:15:07;;;;;;;;;;;;;;;5.44;71.39;100210.03;4436664;32;32598;-56
2021/12/30 08:17:34;;;;;;;;;;;;;;;5.41;71.60;100208.38;4450662;32;33752;-56
2021/12/30 08:20:05;;;;;;;;;;;;;;;5.54;71.32;100214.03;4450627;32;35290;-56
2021/12/30 08:22:32;;;;;;;;;;;;;;;5.52;71.37;100218.47;4450583;32;33864;-56
2021/12/30 08:25:00;;;;;;;;;;;;;;;5.60;71.45;100218.22;4450428;32;33910;-56
2021/12/30 08:27:27;;;;;;;;;;;;;;;5.37;71.81;100217.25;4450388;32;34464;-56
2021/12/30 08:29:54;;;;;;;;;;;;;;;5.55;70.86;100223.63;4450475;32;34229;-56
2021/12/30 08:32:21;;;;;;;;;;;;;;;5.51;71.18;100222.03;4450603;32;35119;-56
2021/12/30 08:34:48;;;;;;;;;;;;;;;5.58;71.09;100226.13;4450553;32;33199;-56
2021/12/30 08:37:16;;;;;;;;;;;;;;;5.39;71.52;100228.53;4450603;32;33827;-56
2021/12/30 08:39:44;;;;;;;;;;;;;;;5.54;71.40;100240.25;4450459;32;34254;-56
2021/12/30 08:42:21;;;;;;;;;;;;;;;5.76;70.77;100235.16;4450406;32;34107;-56
2021/12/30 08:44:49;;;;;;;;;;;;;;;5.63;71.27;100229.47;4450548;32;33530;-56
2021/12/30 08:47:16;;;;;;;;;;;;;;;5.76;70.75;100229.91;4450510;32;33992;-56
2021/12/30 08:49:46;;;;;;;;;;;;;;;5.68;71.11;100240.66;4450465;32;35820;-56
2021/12/30 08:52:14;;;;;;;;;;;;;;;5.88;70.52;100250.44;4450508;32;34036;-56
2021/12/30 08:54:41;;;;;;;;;;;;;;;5.82;70.89;100244.56;4450339;32;33491;-56
2021/12/30 08:57:08;;;;;;;;;;;;;;;5.82;70.81;100241.94;4450118;32;34628;-56
2021/12/30 08:59:36;;;;;;;;;;;;;;;5.67;71.49;100243.31;4450363;32;35109;-56
2021/12/30 09:02:03;;;;;;;;;;;;;;;5.82;71.22;100247.19;4450226;32;35066;-56
2021/12/30 09:04:31;;;;;;;;;;;;;;;5.99;70.67;100239.63;4450366;32;33646;-56
2021/12/30 09:06:59;;;;;;;;;;;;;;;6.02;70.23;100239.47;4450288;32;33830;-56
2021/12/30 09:09:26;;;;;;;;;;;;;;;6.03;70.32;100246.47;4449852;32;34179;-56
2021/12/30 09:11:53;;;;;;;;;;;;;;;5.78;71.16;100254.28;4450094;32;34494;-56
2021/12/30 09:14:21;;;;;;;;;;;;;;;5.97;70.67;100262.41;4450204;32;33771;-56
2021/12/30 09:16:48;;;;;;;;;;;;;;;5.83;70.88;100247.09;4450179;32;34259;-56
2021/12/30 09:19:17;;;;;;;;;;;;;;;5.97;70.71;100241.44;4450188;32;35603;-56
2021/12/30 09:21:49;;;;;;;;;;;;;;;5.92;71.06;100243.31;4450170;32;35173;-56
2021/12/30 09:24:16;;;;;;;;;;;;;;;5.82;71.06;100247.19;4450364;32;33582;-56
2021/12/30 09:26:43;;;;;;;;;;;;;;;6.05;70.62;100238.53;4450187;32;34334;-56
2021/12/30 09:29:11;;;;;;;;;;;;;;;6.02;70.76;100233.41;4450050;32;34675;-56
2021/12/30 09:31:41;;;;;;;;;;;;;;;6.18;70.43;100241.56;4449932;32;35094;-56
2021/12/30 09:34:09;;;;;;;;;;;;;;;6.12;70.70;100237.37;4450245;32;33563;-56
2021/12/30 09:36:36;;;;;;;;;;;;;;;6.16;70.13;100249.47;4449881;32;34152;-56
2021/12/30 09:39:05;;;;;;;;;;;;;;;6.15;70.46;100253.03;4450002;32;34172;-56
2021/12/30 09:41:32;;;;;;;;;;;;;;;6.00;70.85;100257.03;4449959;32;33841;-56
2021/12/30 09:44:00;;;;;;;;;;;;;;;6.18;70.14;100259.91;4435983;32;33133;-56
2021/12/30 09:46:27;;;;;;;;;;;;;;;6.17;70.13;100259.06;4449906;32;33578;-56
2021/12/30 09:48:54;;;;;;;;;;;;;;;6.24;69.96;100262.31;4450012;32;34329;-56
2021/12/30 09:51:22;;;;;;;;;;;;;;;6.22;69.83;100265.00;4435832;32;35088;-56
2021/12/30 09:53:50;;;;;;;;;;;;;;;6.20;70.03;100268.59;4449766;32;33566;-56
2021/12/30 09:56:18;;;;;;;;;;;;;;;6.22;70.25;100274.63;4449723;32;33858;-56
2021/12/30 09:58:46;;;;;;;;;;;;;;;6.17;70.44;100269.56;4449694;32;35184;-56
2021/12/30 10:01:13;;;;;;;;;;;;;;;6.21;70.44;100263.28;4449999;32;34081;-56
2021/12/30 10:03:42;;;;;;;;;;;;;;;6.36;70.00;100268.88;4449596;32;34333;-56
2021/12/30 10:06:10;;;;;;;;;;;;;;;6.56;69.23;100269.00;4435511;32;33240;-56
2021/12/30 10:08:42;;;;;;;;;;;;;;;6.36;69.76;100266.25;4449388;32;34699;-56
2021/12/30 10:11:14;;;;;;;;;;;;;;;6.42;69.59;100261.66;4449684;32;35159;-56
2021/12/30 10:13:48;;;;;;;;;;;;;;;6.38;69.53;100267.94;4449597;32;33739;-56
2021/12/30 10:16:16;;;;;;;;;;;;;;;6.19;70.02;100257.25;4449542;32;33896;-56
2021/12/30 10:18:48;;;;;;;;;;;;;;;6.38;69.75;100267.94;4449344;32;34775;-56
2021/12/30 10:21:17;;;;;;;;;;;;;;;6.34;70.15;100260.22;4435920;32;35033;-56
2021/12/30 10:23:46;;;;;;;;;;;;;;;6.09;71.36;100256.72;4451291;32;33548;-56
2021/12/30 10:26:13;;;;;;;;;;;;;;;6.28;70.57;100256.03;4451291;32;34286;-56
2021/12/30 10:28:43;;;;;;;;;;;;;;;6.41;70.22;100254.69;4451369;32;34163;-56
2021/12/30 10:31:10;;;;;;;;;;;;;;;6.40;70.00;100260.00;4451420;32;33957;-56
2021/12/30 10:33:53;;;;;;;;;;;;;;;6.46;69.88;100259.78;4451369;32;34260;-56
2021/12/30 10:36:20;;;;;;;;;;;;;;;6.28;70.29;100256.91;4451266;32;33795;-56
2021/12/30 10:38:48;;;;;;;;;;;;;;;6.33;70.08;100263.75;4451188;32;35313;-56
2021/12/30 10:41:15;;;;;;;;;;;;;;;6.29;70.03;100270.87;4451247;32;35089;-56
2021/12/30 10:46:13;;;;;;;;;;;;;;;6.53;69.50;100263.84;4451278;32;33973;-56
2021/12/30 10:48:51;;;;;;;;;;;;;;;6.56;69.67;100258.50;4451432;32;37039;-56
2021/12/30 10:51:28;;;;;;;;;;;;;;;6.30;70.64;100254.22;4451198;32;34029;-56
2021/12/30 10:53:55;;;;;;;;;;;;;;;6.45;70.36;100253.66;4451175;32;34115;-56
2021/12/30 10:56:36;;;;;;;;;;;;;;;6.58;69.98;100240.09;4450955;32;34306;-56
2021/12/30 10:59:10;;;;;;;;;;;;;;;6.35;70.49;100247.03;4451217;32;35320;-56
2021/12/30 11:01:42;;;;;;;;;;;;;;;6.38;70.59;100241.69;4451236;32;35325;-56
2021/12/30 11:04:10;;;;;;;;;;;;;;;6.60;69.93;100236.47;4451350;32;33136;-56
2021/12/30 11:06:37;;;;;;;;;;;;;;;6.39;70.70;100238.16;4451070;32;35123;-56
2021/12/30 11:09:09;;;;;;;;;;;;;;;6.36;71.25;100238.28;4450928;32;34490;-56
2021/12/30 11:11:38;;;;;;;;;;;;;;;6.51;70.80;100234.19;4451380;32;34003;-56
2021/12/30 11:14:07;;;;;;;;;;;;;;;6.58;70.79;100234.84;4437187;32;33530;-56
2021/12/30 11:16:51;;;;;;;;;;;;;;;6.47;71.21;100240.47;4451012;32;33637;-56
2021/12/30 11:19:20;;;;;;;;;;;;;;;6.63;71.20;100239.00;4451004;32;34188;-56
2021/12/30 11:21:51;;;;;;;;;;;;;;;6.69;70.55;100227.41;4450910;32;35038;-56
2021/12/30 11:24:19;;;;;;;;;;;;;;;6.70;70.01;100227.34;4451215;32;33752;-56
2021/12/30 11:26:46;;;;;;;;;;;;;;;6.60;70.01;100225.12;4451198;32;34179;-56
2021/12/30 11:29:13;;;;;;;;;;;;;;;6.80;69.49;100226.97;4436879;32;35534;-56
2021/12/30 11:31:41;;;;;;;;;;;;;;;6.75;69.67;100227.19;4450818;32;35463;-56
2021/12/30 11:34:08;;;;;;;;;;;;;;;6.60;70.30;100233.00;4451026;32;32572;-56
2021/12/30 11:36:35;;;;;;;;;;;;;;;6.86;69.52;100235.50;4450872;32;34081;-56
2021/12/30 11:39:05;;;;;;;;;;;;;;;6.68;69.80;100246.69;4450918;32;35190;-56
2021/12/30 11:41:33;;;;;;;;;;;;;;;6.75;70.01;100242.06;4436766;32;35173;-56
2021/12/30 11:44:00;;;;;;;;;;;;;;;6.73;70.08;100242.12;4437036;32;33662;-56
2021/12/30 11:46:36;;;;;;;;;;;;;;;6.59;70.53;100240.03;4450872;32;33587;-56
2021/12/30 11:49:05;;;;;;;;;;;;;;;6.60;70.72;100233.00;4450859;32;36277;-56
2021/12/30 11:52:02;;;;;;;;;;;;;;;6.75;70.19;100234.19;4450659;32;34556;-56
2021/12/30 11:54:33;;;;;;;;;;;;;;;6.79;70.09;100223.50;4437376;32;33772;-56
2021/12/30 11:57:20;;;;;;;;;;;;;;;6.74;70.43;100222.81;4450823;32;33859;-56
2021/12/30 11:59:47;;;;;;;;;;;;;;;6.72;70.44;100223.81;4451127;32;34416;-56
2021/12/30 12:02:30;;;;;;;;;;;;;;;6.77;70.29;100214.84;4436667;32;34685;-56
2021/12/30 12:04:58;;;;;;;;;;;;;;;6.77;70.51;100214.00;4450766;32;34692;-56
2021/12/30 12:07:26;;;;;;;;;;;;;;;6.79;70.70;100209.53;4450589;32;33705;-56
2021/12/30 12:09:53;;;;;;;;;;;;;;;6.81;70.68;100211.19;4436901;32;34713;-56
2021/12/30 12:12:41;;;;;;;;;;;;;;;6.92;70.39;100207.25;4450713;32;34822;-56
2021/12/30 12:15:08;;;;;;;;;;;;;;;7.14;69.44;100221.25;4436579;32;33989;-56
2021/12/30 12:17:36;;;;;;;;;;;;;;;7.03;69.99;100215.56;4450501;32;34139;-56
2021/12/30 12:20:21;;;;;;;;;;;;;;;7.02;69.68;100222.59;4450456;32;34834;-57
2021/12/30 12:22:49;;;;;;;;;;;;;;;6.97;70.11;100221.06;4450686;32;34937;-56
2021/12/30 12:25:22;;;;;;;;;;;;;;;7.05;69.91;100235.59;4450584;32;32756;-56
2021/12/30 12:27:50;;;;;;;;;;;;;;;6.95;70.26;100233.41;4450902;32;34262;-56
2021/12/30 12:30:23;;;;;;;;;;;;;;;7.02;69.62;100225.22;4450383;32;35387;-56
2021/12/30 12:32:51;;;;;;;;;;;;;;;7.00;69.83;100228.81;4450470;32;34202;-56
2021/12/30 12:35:18;;;;;;;;;;;;;;;7.12;69.45;100235.38;4450464;32;33096;-56
2021/12/30 12:37:47;;;;;;;;;;;;;;;6.94;69.79;100234.31;4450719;32;34322;-56
2021/12/30 12:40:31;;;;;;;;;;;;;;;6.98;69.71;100246.41;4450532;32;34780;-56
2021/12/30 12:43:03;;;;;;;;;;;;;;;6.95;69.93;100249.16;4450419;32;34571;-56
2021/12/30 12:45:33;;;;;;;;;;;;;;;7.05;69.74;100232.12;4449760;32;33258;-56
2021/12/30 12:48:30;;;;;;;;;;;;;;;7.09;69.71;100233.69;4450755;32;34065;-56
2021/12/30 12:50:57;;;;;;;;;;;;;;;7.05;69.73;100229.50;4428984;32;34784;-56
2021/12/30 12:53:26;;;;;;;;;;;;;;;6.78;70.60;100242.78;4450444;32;34394;-56
2021/12/30 12:55:54;;;;;;;;;;;;;;;6.85;70.62;100239.03;4450459;32;33559;-56
2021/12/30 12:58:25;;;;;;;;;;;;;;;6.80;70.94;100237.47;4450370;32;34250;-56
2021/12/30 13:00:55;;;;;;;;;;;;;;;7.14;69.74;100241.41;4450611;32;34838;-56